Lishui, China
Current Conditions -  °F | °C
As of 11:00 PM on Friday 24 Oct 2014 (Local Time) from ZSHC Reporting Station
Clear Clear  
Wind Chill: 63°   Ceiling: Unl
Heat Index: 63°   Visibility: 6mi
Dew Point: 55°   Wind: 2mph
Humidity: 77%   Direction: 90°E
Pressure: 30.06"   Gusts: NA
Location:  28.46°N, 119.91°E
Report Text: ZSHC 241500Z 09001MPS CAVOK 17/13 Q1018 NOSIG
Loading
Personal Weather Stations






























Interactive Weather Map
Tropical Storm Tracking
New forecast layout! Learn more

10-Day Weather Forecast

Advertisements
Track Severe Weather on mobile